Terminal Aerodrome Forecast
Issued by NWS

Home | Current Version | Previous Version | Text Only | Print | Product List | Glossary On
Versions: 1 2 3 4 5 6 7 8 9 10 11 12
579
FTUS42 TJSJ 222340
TAFNCM
TAF
TNCM 222340Z 2300/2324 07011KT P6SM VCSH SCT020 SCT040
     FM231200 10014KT P6SM -SHRA SCT018 SCT035
     FM232000 08010KT P6SM SCT020=

USA.gov is the U.S. government's official web portal to all federal, state and local government web resources and services.